Time;durP1;ratioP1;P1;durP2;ratioP2;P2;SDS_P1;SDS_P2;PMS_P1;PMS_P2;Temp;Humidity;BMP_temperature;BMP_pressure;BME280_temperature;BME280_humidity;BME280_pressure;Samples;Min_cycle;Max_cycle;Signal;HPM_P1;HPM_P2
2023/08/26 00:01:52;;;;;;;3.13;2.05;;;;;;;23.08;51.79;100965.06;16114438;19;130811;-60
2023/08/26 00:07:14;;;;;;;3.72;2.13;;;;;;;23.07;51.87;100968.97;16114713;19;129860;-60
2023/08/26 00:12:36;;;;;;;3.45;2.60;;;;;;;23.05;51.85;100961.72;16112172;19;129671;-60
2023/08/26 00:17:58;;;;;;;2.47;2.08;;;;;;;23.04;51.82;100962.84;16112714;19;130372;-60
2023/08/26 00:23:21;;;;;;;2.28;1.90;;;;;;;23.03;51.76;100958.34;16109687;19;129707;-61
2023/08/26 00:28:44;;;;;;;3.72;2.00;;;;;;;23.03;51.65;100966.72;16112387;19;129613;-60
2023/08/26 00:34:06;;;;;;;3.30;1.67;;;;;;;23.01;51.55;100963.41;16111384;19;129778;-60
2023/08/26 00:39:28;;;;;;;3.25;1.70;;;;;;;23.01;51.43;100966.19;16107168;19;129874;-60
2023/08/26 00:44:50;;;;;;;1.52;1.42;;;;;;;23.00;51.60;100958.94;16115230;19;131284;-60
2023/08/26 00:50:12;;;;;;;1.98;1.67;;;;;;;22.99;51.71;100954.47;16113835;19;129622;-60
2023/08/26 00:55:37;;;;;;;1.77;1.27;;;;;;;22.98;51.78;100950.00;16113124;19;130313;-60
2023/08/26 01:00:59;;;;;;;1.95;1.35;;;;;;;22.98;51.59;100951.94;16116913;19;129655;-60
2023/08/26 01:06:21;;;;;;;1.38;1.27;;;;;;;22.98;51.74;100955.56;16114418;19;130708;-60
2023/08/26 01:11:58;;;;;;;2.42;1.50;;;;;;;22.97;51.40;100953.91;16113350;19;129955;-60
2023/08/26 01:17:21;;;;;;;3.00;1.50;;;;;;;22.96;51.29;100957.81;16116421;19;130011;-60
2023/08/26 01:22:45;;;;;;;1.85;1.38;;;;;;;22.95;51.41;100950.53;16110481;19;129552;-60
2023/08/26 01:28:07;;;;;;;2.43;1.10;;;;;;;22.94;51.65;100953.63;16109298;19;129662;-60
2023/08/26 01:33:35;;;;;;;3.15;1.40;;;;;;;22.94;51.31;100950.81;16111912;19;130461;-60
2023/08/26 01:38:57;;;;;;;1.75;1.27;;;;;;;22.92;51.00;100947.47;16110224;19;129421;-60
2023/08/26 01:44:21;;;;;;;1.42;1.20;;;;;;;22.91;51.63;100949.41;16109375;19;132507;-60
2023/08/26 01:49:44;;;;;;;1.45;1.13;;;;;;;22.89;51.21;100946.88;16108657;19;131565;-58
2023/08/26 01:55:06;;;;;;;1.20;1.00;;;;;;;22.87;51.25;100949.09;16118791;19;129844;-60
2023/08/26 02:00:28;;;;;;;1.33;1.00;;;;;;;22.87;51.17;100943.50;16125485;19;130269;-59
2023/08/26 02:05:50;;;;;;;2.40;1.30;;;;;;;22.87;51.31;100951.06;16128735;19;129896;-60
2023/08/26 02:11:11;;;;;;;3.08;1.25;;;;;;;22.85;50.87;100944.91;16121882;19;129553;-60
2023/08/26 02:16:33;;;;;;;1.20;1.10;;;;;;;22.85;51.24;100942.94;16125615;19;130308;-60
2023/08/26 02:21:57;;;;;;;2.78;1.10;;;;;;;22.86;51.10;100949.38;16126142;19;131040;-60
2023/08/26 02:27:19;;;;;;;1.10;1.00;;;;;;;22.84;51.23;100943.22;16122810;19;130201;-61
2023/08/26 02:32:41;;;;;;;2.60;0.98;;;;;;;22.84;51.49;100943.22;16124154;19;130919;-60
2023/08/26 02:38:03;;;;;;;1.90;1.00;;;;;;;22.84;51.06;100934.88;16126227;19;129633;-60
2023/08/26 02:43:25;;;;;;;2.25;1.02;;;;;;;22.82;51.14;100929.56;16121998;19;130222;-60
2023/08/26 02:48:47;;;;;;;1.58;0.93;;;;;;;22.81;51.39;100933.47;16121263;19;129804;-60
2023/08/26 02:54:09;;;;;;;1.08;0.98;;;;;;;22.81;51.13;100927.03;16121295;19;129423;-60
2023/08/26 02:59:31;;;;;;;0.90;0.88;;;;;;;22.80;50.94;100930.94;16121685;19;130788;-60
2023/08/26 03:04:52;;;;;;;1.17;1.00;;;;;;;22.80;50.99;100925.34;16118798;19;129391;-54
2023/08/26 03:10:15;;;;;;;1.92;0.90;;;;;;;22.79;51.13;100929.25;16122298;19;130622;-60
2023/08/26 03:15:36;;;;;;;0.95;0.85;;;;;;;22.78;51.23;100922.00;16121104;19;130193;-60
2023/08/26 03:21:09;;;;;;;1.23;0.90;;;;;;;22.78;51.16;100931.22;16124192;19;129532;-60
2023/08/26 03:26:30;;;;;;;0.93;0.80;;;;;;;22.75;50.79;100931.75;16120609;19;129661;-60
2023/08/26 03:31:53;;;;;;;2.97;0.98;;;;;;;22.74;51.00;100928.16;16118634;19;130481;-61
2023/08/26 03:37:15;;;;;;;0.80;0.80;;;;;;;22.73;51.09;100923.69;16121152;19;129852;-60
2023/08/26 03:42:38;;;;;;;1.30;0.80;;;;;;;22.73;51.06;100920.91;16119189;19;129463;-60
2023/08/26 03:48:00;;;;;;;0.63;0.63;;;;;;;22.72;51.04;100930.38;16118751;19;130651;-60
2023/08/26 03:53:22;;;;;;;0.80;0.70;;;;;;;22.72;50.82;100932.31;16117459;19;129613;-60
2023/08/26 03:58:44;;;;;;;0.95;0.73;;;;;;;22.70;51.14;100935.38;16119646;19;130121;-60
2023/08/26 04:04:06;;;;;;;1.20;0.55;;;;;;;22.70;50.88;100940.13;16121439;19;131438;-60
2023/08/26 04:09:28;;;;;;;0.90;0.65;;;;;;;22.70;51.15;100926.19;16116249;19;129445;-60
2023/08/26 04:14:50;;;;;;;0.80;0.80;;;;;;;22.69;50.89;100944.03;16116109;19;129854;-60
2023/08/26 04:20:12;;;;;;;0.73;0.73;;;;;;;22.67;50.74;100944.28;16111347;19;130182;-58
2023/08/26 04:25:34;;;;;;;0.85;0.77;;;;;;;22.67;51.22;100943.47;16114256;19;129784;-60
2023/08/26 04:31:00;;;;;;;1.00;0.60;;;;;;;22.66;50.56;100953.75;16109681;19;129992;-61
2023/08/26 04:36:22;;;;;;;2.55;0.65;;;;;;;22.65;51.10;100957.66;16113262;19;132074;-60
2023/08/26 04:41:44;;;;;;;0.85;0.60;;;;;;;22.65;50.67;100963.22;16115277;19;130402;-60
2023/08/26 04:47:06;;;;;;;1.15;0.60;;;;;;;22.64;51.08;100964.38;16112127;19;129485;-60
2023/08/26 04:52:28;;;;;;;0.75;0.50;;;;;;;22.63;50.85;100968.28;16113588;19;131085;-60
2023/08/26 04:57:50;;;;;;;1.08;0.50;;;;;;;22.63;50.91;100986.94;16116901;19;130447;-60
2023/08/26 05:03:12;;;;;;;0.70;0.55;;;;;;;22.63;50.78;100986.94;16114860;19;129603;-60
2023/08/26 05:08:34;;;;;;;0.40;0.40;;;;;;;22.61;50.48;100987.22;16110942;19;129860;-60
2023/08/26 05:13:56;;;;;;;0.50;0.50;;;;;;;22.61;50.49;100989.16;16114538;19;130364;-60
2023/08/26 05:19:18;;;;;;;0.85;0.60;;;;;;;22.59;50.84;100987.47;16112229;19;131108;-59
2023/08/26 05:24:40;;;;;;;0.70;0.70;;;;;;;22.60;50.63;100982.75;16110438;19;129601;-60
2023/08/26 05:30:03;;;;;;;0.98;0.50;;;;;;;22.59;50.86;100981.06;16130932;19;129697;-60
2023/08/26 05:35:25;;;;;;;0.95;0.50;;;;;;;22.58;50.78;100979.41;16143512;19;130004;-60
2023/08/26 05:40:47;;;;;;;0.50;0.40;;;;;;;22.57;50.82;100977.72;16141292;19;130603;-60
2023/08/26 05:46:09;;;;;;;0.57;0.50;;;;;;;22.57;50.53;100983.28;16143003;19;131207;-63
2023/08/26 05:51:34;;;;;;;1.13;0.60;;;;;;;22.57;50.63;100986.06;16140602;19;129382;-63
2023/08/26 05:56:56;;;;;;;1.60;0.65;;;;;;;22.56;50.37;100979.69;16139950;19;129541;-60
2023/08/26 06:02:18;;;;;;;0.40;0.40;;;;;;;22.56;50.73;100974.09;16141497;19;130969;-68
2023/08/26 06:07:40;;;;;;;1.17;0.57;;;;;;;22.56;50.29;100962.09;16143018;19;131215;-65
2023/08/26 06:13:02;;;;;;;0.68;0.50;;;;;;;22.57;50.30;100960.97;16139016;19;131877;-68
2023/08/26 06:18:25;;;;;;;0.43;0.43;;;;;;;22.56;50.48;100964.88;16142463;19;129748;-60
2023/08/26 06:23:46;;;;;;;0.75;0.40;;;;;;;22.64;50.28;100983.91;16136769;19;129765;-55
2023/08/26 06:29:08;;;;;;;13.20;0.93;;;;;;;22.76;49.87;100975.28;16142692;19;130281;-65
2023/08/26 06:34:30;;;;;;;1.13;0.60;;;;;;;22.87;49.31;100981.75;16138582;19;130975;-63
2023/08/26 06:39:52;;;;;;;2.08;0.70;;;;;;;22.96;49.56;100985.69;16134195;19;131289;-64
2023/08/26 06:45:14;;;;;;;3.70;0.82;;;;;;;23.05;48.63;100978.47;16116340;19;130378;-66
2023/08/26 06:50:37;;;;;;;3.80;0.90;;;;;;;23.13;48.64;100979.06;16120370;19;130103;-65
2023/08/26 06:55:59;;;;;;;4.47;0.82;;;;;;;23.20;48.20;100980.44;16122897;19;130236;-65
2023/08/26 07:01:20;;;;;;;5.20;1.30;;;;;;;23.26;47.59;100984.09;16119301;19;130481;-64
2023/08/26 07:06:42;;;;;;;3.17;1.20;;;;;;;23.33;47.64;100979.06;16119583;19;130885;-66
2023/08/26 07:12:05;;;;;;;3.95;1.00;;;;;;;23.38;47.27;100986.63;16123490;19;131122;-65
2023/08/26 07:17:26;;;;;;;2.47;1.17;;;;;;;23.44;46.83;100979.06;16116554;19;130763;-64
2023/08/26 07:22:48;;;;;;;4.47;1.23;;;;;;;23.47;46.99;100970.16;16114130;19;130769;-65
2023/08/26 07:28:10;;;;;;;2.97;1.35;;;;;;;23.51;46.42;100976.84;16113276;19;131156;-65
2023/08/26 07:33:32;;;;;;;2.38;1.00;;;;;;;23.55;46.29;100969.59;16116053;19;131005;-66
2023/08/26 07:38:54;;;;;;;2.55;1.08;;;;;;;23.58;46.24;100983.03;16118550;19;129774;-65
2023/08/26 07:44:16;;;;;;;3.65;1.35;;;;;;;23.61;45.93;100982.47;16120225;19;130185;-65
2023/08/26 07:49:39;;;;;;;4.93;1.00;;;;;;;23.66;45.78;100979.66;16118392;19;130185;-67
2023/08/26 07:55:01;;;;;;;3.08;1.58;;;;;;;23.66;45.53;100985.25;16114935;19;129788;-71
2023/08/26 08:00:23;;;;;;;4.57;1.65;;;;;;;23.68;45.69;100972.97;16115144;19;131167;-72
2023/08/26 08:05:45;;;;;;;5.35;1.30;;;;;;;23.66;45.32;100976.88;16110778;19;130440;-71
2023/08/26 08:11:07;;;;;;;4.82;1.55;;;;;;;23.66;44.82;100965.69;16118339;19;131884;-73
2023/08/26 08:16:29;;;;;;;6.10;1.45;;;;;;;23.66;45.11;100976.06;16116544;19;129467;-73
2023/08/26 08:21:51;;;;;;;3.25;1.15;;;;;;;23.66;44.85;100965.69;16119994;19;130384;-72
2023/08/26 08:27:13;;;;;;;3.92;1.20;;;;;;;23.63;45.13;100971.84;16117033;19;130942;-70
2023/08/26 08:32:35;;;;;;;3.60;1.17;;;;;;;23.60;45.21;100978.00;16110188;19;130823;-73
2023/08/26 08:37:57;;;;;;;3.30;1.23;;;;;;;23.61;45.43;100976.03;16114359;19;129267;-71
2023/08/26 08:43:21;;;;;;;4.22;1.33;;;;;;;23.53;45.13;100977.41;16117427;19;129383;-69
2023/08/26 08:48:43;;;;;;;3.17;1.30;;;;;;;23.52;45.46;100986.88;16120961;19;129521;-72
2023/08/26 08:54:06;;;;;;;5.00;1.40;;;;;;;23.52;45.50;100986.88;16123292;19;134117;-70
2023/08/26 08:59:32;;;;;;;4.38;1.70;;;;;;;23.49;46.01;100990.25;16122383;19;129666;-67
2023/08/26 09:04:54;;;;;;;2.38;1.10;;;;;;;23.51;45.80;100986.06;16121561;19;129300;-68
2023/08/26 09:10:16;;;;;;;2.80;1.30;;;;;;;23.51;45.39;100979.63;16124180;19;129633;-67
2023/08/26 09:15:39;;;;;;;3.35;1.00;;;;;;;23.51;45.69;100988.00;16128206;19;129667;-67
2023/08/26 09:21:09;;;;;;;2.20;1.10;;;;;;;23.52;45.94;100995.28;16124128;19;129748;-68
2023/08/26 09:26:31;;;;;;;2.50;1.20;;;;;;;23.51;45.54;100990.78;16117645;19;129444;-68
2023/08/26 09:31:54;;;;;;;2.42;1.20;;;;;;;23.49;46.03;100993.06;16100501;19;130441;-68
2023/08/26 09:37:16;;;;;;;2.13;1.20;;;;;;;23.49;45.96;100990.25;16108217;19;129570;-68
2023/08/26 09:42:39;;;;;;;1.20;0.90;;;;;;;23.48;45.98;100983.00;16118899;19;129494;-67
2023/08/26 09:48:01;;;;;;;2.92;0.85;;;;;;;23.46;45.86;100980.47;16121177;19;130861;-67
2023/08/26 09:53:33;;;;;;;2.15;0.90;;;;;;;23.44;45.94;100977.13;16117491;19;129379;-67
2023/08/26 09:58:56;;;;;;;2.05;1.00;;;;;;;23.42;46.03;100986.88;16116829;19;130152;-67
2023/08/26 10:04:26;;;;;;;1.77;0.80;;;;;;;23.40;46.54;100995.56;16115317;19;129622;-68
2023/08/26 10:10:00;;;;;;;3.35;1.00;;;;;;;23.40;46.10;100983.53;16111382;19;131285;-67
2023/08/26 10:15:26;;;;;;;1.42;0.80;;;;;;;23.37;46.03;101006.44;16120178;19;129688;-68
2023/08/26 10:20:49;;;;;;;1.92;0.85;;;;;;;23.34;46.24;101003.09;16124269;19;131585;-67
2023/08/26 10:26:13;;;;;;;1.67;0.80;;;;;;;23.33;46.07;100995.81;16124988;19;130330;-67
2023/08/26 10:31:40;;;;;;;3.22;1.25;;;;;;;23.31;46.50;100998.03;16123910;19;129863;-67
2023/08/26 10:37:04;;;;;;;1.83;0.85;;;;;;;23.30;46.38;101001.94;16123395;19;129137;-67
2023/08/26 10:42:26;;;;;;;2.30;0.80;;;;;;;23.29;46.41;100997.47;16122554;19;130070;-68
2023/08/26 10:47:52;;;;;;;2.08;0.98;;;;;;;23.29;46.40;100994.69;16126718;19;129356;-68
2023/08/26 10:53:19;;;;;;;0.98;0.65;;;;;;;23.28;46.43;100986.59;16123024;19;129569;-68
2023/08/26 10:58:43;;;;;;;1.75;0.80;;;;;;;23.26;46.39;100980.47;16125841;19;130817;-68
2023/08/26 11:04:05;;;;;;;2.33;0.90;;;;;;;23.25;46.30;100982.44;16122808;19;134474;-67
2023/08/26 11:09:27;;;;;;;1.17;0.73;;;;;;;23.24;46.30;100971.50;16121229;19;130770;-67
2023/08/26 11:14:49;;;;;;;1.25;0.60;;;;;;;23.23;46.67;100959.53;16120420;19;130915;-68
2023/08/26 11:20:11;;;;;;;1.63;0.80;;;;;;;23.23;46.59;100969.84;16120055;19;129527;-67
2023/08/26 11:25:34;;;;;;;2.10;0.70;;;;;;;23.23;46.45;100967.91;16117514;19;129898;-67
2023/08/26 11:30:56;;;;;;;0.85;0.60;;;;;;;23.24;45.96;100952.84;16119004;19;130337;-67
2023/08/26 11:36:20;;;;;;;1.13;0.68;;;;;;;23.22;46.72;100966.22;16120662;19;130421;-68
2023/08/26 11:41:42;;;;;;;1.23;0.70;;;;;;;23.24;46.24;100964.00;16125429;19;129746;-67
2023/08/26 11:47:07;;;;;;;3.22;0.80;;;;;;;23.26;46.25;100966.50;16121697;19;130216;-68
2023/08/26 11:52:38;;;;;;;2.10;0.60;;;;;;;23.25;46.31;100959.25;16120238;19;130844;-69
2023/08/26 11:58:02;;;;;;;1.08;0.75;;;;;;;23.22;46.00;100960.63;16120847;19;134086;-68
2023/08/26 12:03:24;;;;;;;1.95;0.70;;;;;;;23.22;45.80;100957.84;16116093;19;130980;-68
2023/08/26 12:08:51;;;;;;;1.13;0.50;;;;;;;23.23;46.11;100945.56;16118023;19;129749;-68
2023/08/26 12:14:21;;;;;;;0.68;0.50;;;;;;;23.24;46.22;100946.41;16122234;19;129820;-68
2023/08/26 12:19:44;;;;;;;2.35;0.70;;;;;;;23.20;46.13;100954.50;16116532;19;130464;-69
2023/08/26 12:25:06;;;;;;;1.13;0.60;;;;;;;23.20;46.14;100951.69;16117582;19;131933;-68
2023/08/26 12:30:28;;;;;;;1.52;0.75;;;;;;;23.19;46.04;100944.44;16117599;19;129463;-67
2023/08/26 12:35:52;;;;;;;0.60;0.50;;;;;;;23.18;46.41;100940.81;16120571;19;130558;-68
2023/08/26 12:41:14;;;;;;;0.90;0.60;;;;;;;23.19;45.67;100950.03;16117681;19;132052;-69
2023/08/26 12:46:36;;;;;;;1.13;0.50;;;;;;;23.18;45.82;100948.34;16123690;19;131352;-67
2023/08/26 12:51:59;;;;;;;1.33;0.50;;;;;;;23.19;45.85;100952.81;16115714;19;129530;-69
2023/08/26 12:57:21;;;;;;;0.75;0.52;;;;;;;23.20;46.02;100962.88;16113596;19;129872;-69
2023/08/26 13:02:44;;;;;;;0.65;0.45;;;;;;;23.20;45.60;100957.28;16118472;19;129826;-68
2023/08/26 13:08:06;;;;;;;1.52;0.60;;;;;;;23.19;45.40;100961.19;16122460;19;129541;-68
2023/08/26 13:13:28;;;;;;;2.22;0.70;;;;;;;23.19;45.71;100969.56;16122683;19;129609;-68
2023/08/26 13:18:50;;;;;;;1.52;0.60;;;;;;;23.20;45.72;100960.91;16122609;19;129349;-69
2023/08/26 13:24:12;;;;;;;0.60;0.50;;;;;;;23.19;45.87;100961.19;16123711;19;129429;-68
2023/08/26 13:29:36;;;;;;;1.40;0.65;;;;;;;23.18;45.71;100954.78;16127275;19;130161;-68
2023/08/26 13:34:58;;;;;;;0.65;0.50;;;;;;;23.17;45.82;100953.09;16116575;19;132112;-67
2023/08/26 13:40:20;;;;;;;0.85;0.55;;;;;;;23.19;45.64;100947.22;16119216;19;129683;-69
2023/08/26 13:45:42;;;;;;;2.47;0.52;;;;;;;23.18;45.57;100942.75;16128851;19;131420;-69
2023/08/26 13:51:04;;;;;;;1.17;0.52;;;;;;;23.17;45.20;100943.88;16140491;19;129721;-68
2023/08/26 13:56:26;;;;;;;1.60;0.50;;;;;;;23.16;44.90;100945.84;16135604;19;129968;-62
2023/08/26 14:01:48;;;;;;;3.55;0.68;;;;;;;23.18;44.96;100942.75;16145620;19;130739;-58
2023/08/26 14:07:10;;;;;;;4.63;0.55;;;;;;;23.17;44.42;100953.09;16138515;19;131415;-64
2023/08/26 14:12:34;;;;;;;1.58;0.65;;;;;;;23.18;44.31;100945.56;16144877;19;129689;-64
2023/08/26 14:17:56;;;;;;;4.60;0.73;;;;;;;23.19;44.15;100952.81;16205699;19;129638;-61
2023/08/26 14:23:18;;;;;;;4.07;0.50;;;;;;;23.21;43.68;100947.78;16206556;19;129458;-60
2023/08/26 14:28:40;;;;;;;2.53;0.60;;;;;;;23.24;43.63;100951.97;16205522;19;133049;-73
2023/08/26 14:34:02;;;;;;;6.28;0.82;;;;;;;23.23;43.77;100965.09;16200451;19;128763;-65
2023/08/26 14:39:26;;;;;;;7.18;1.13;;;;;;;23.25;43.50;100987.16;16196194;19;129461;-58
2023/08/26 14:44:48;;;;;;;4.05;0.80;;;;;;;23.25;43.50;101001.97;16199706;19;128723;-60
2023/08/26 14:50:10;;;;;;;3.22;0.75;;;;;;;23.23;43.30;101004.19;16196142;19;130180;-61
2023/08/26 14:55:32;;;;;;;1.75;0.55;;;;;;;23.25;42.99;101012.28;16162174;19;129148;-62
2023/08/26 15:00:54;;;;;;;7.03;0.70;;;;;;;23.25;43.70;101017.84;16194693;19;129232;-63
2023/08/26 15:06:16;;;;;;;5.10;0.40;;;;;;;23.22;43.59;101033.22;16178819;19;130053;-62
2023/08/26 15:11:39;;;;;;;3.13;0.95;;;;;;;23.23;43.47;101006.97;16156366;19;129625;-58
2023/08/26 15:17:02;;;;;;;2.90;0.73;;;;;;;23.27;43.61;101001.66;16155369;19;131341;-53
2023/08/26 15:22:23;;;;;;;5.82;0.65;;;;;;;23.30;43.96;100996.38;16126392;19;129726;-56
2023/08/26 15:27:45;;;;;;;4.18;0.50;;;;;;;23.37;43.97;100989.69;16129965;19;130130;-59
2023/08/26 15:33:07;;;;;;;1.55;0.57;;;;;;;23.41;43.64;100980.47;16119691;19;130589;-67
2023/08/26 15:38:29;;;;;;;4.65;0.50;;;;;;;23.41;43.95;100979.63;16110856;19;130406;-62
2023/08/26 15:43:51;;;;;;;5.47;0.85;;;;;;;23.38;44.13;100974.63;16105372;19;131628;-63
2023/08/26 15:49:13;;;;;;;7.53;1.00;;;;;;;23.36;44.42;100972.09;16104038;19;130773;-66
2023/08/26 15:54:36;;;;;;;4.75;0.70;;;;;;;23.34;44.46;100960.34;16104453;19;131557;-68
2023/08/26 15:59:58;;;;;;;2.25;0.60;;;;;;;23.32;44.42;100960.66;16118267;19;129564;-66
2023/08/26 16:05:21;;;;;;;4.35;0.70;;;;;;;23.30;44.49;100950.88;16113567;19;130416;-66
2023/08/26 16:10:43;;;;;;;1.58;0.60;;;;;;;23.28;44.55;100948.34;16113174;19;130026;-66
2023/08/26 16:16:04;;;;;;;5.25;0.60;;;;;;;23.26;44.68;100938.59;16114285;19;131767;-66
2023/08/26 16:21:28;;;;;;;1.23;0.50;;;;;;;23.27;44.84;100941.09;16108976;19;130202;-67
2023/08/26 16:26:50;;;;;;;3.88;0.65;;;;;;;23.26;44.75;100933.84;16111415;19;131757;-67
2023/08/26 16:32:13;;;;;;;6.28;0.55;;;;;;;23.25;44.92;100923.81;16116487;19;129658;-66
2023/08/26 16:37:35;;;;;;;4.35;0.60;;;;;;;23.23;44.96;100928.81;16108154;19;130622;-66
2023/08/26 16:42:57;;;;;;;3.95;0.70;;;;;;;23.22;44.73;100934.66;16112723;19;129540;-67
2023/08/26 16:48:19;;;;;;;3.08;0.50;;;;;;;23.20;45.02;100940.53;16111778;19;131098;-66
2023/08/26 16:53:41;;;;;;;4.68;0.70;;;;;;;23.19;45.27;100944.44;16115758;19;130569;-67
2023/08/26 16:59:04;;;;;;;2.40;0.52;;;;;;;23.17;44.96;100936.34;16119747;19;130503;-66
2023/08/26 17:04:27;;;;;;;1.95;0.40;;;;;;;23.18;45.26;100932.44;16119076;19;130827;-66
2023/08/26 17:09:49;;;;;;;3.22;0.50;;;;;;;23.18;45.65;100926.88;16118642;19;130437;-67
2023/08/26 17:15:10;;;;;;;1.65;0.50;;;;;;;23.17;45.20;100921.53;16120715;19;129291;-67
2023/08/26 17:20:32;;;;;;;3.42;0.80;;;;;;;23.17;45.47;100924.34;16114158;19;129482;-67
2023/08/26 17:25:54;;;;;;;2.17;0.50;;;;;;;23.17;45.23;100925.19;16108570;19;130136;-66
2023/08/26 17:31:17;;;;;;;2.15;0.63;;;;;;;23.16;45.47;100928.25;16115328;19;129594;-67
2023/08/26 17:36:39;;;;;;;2.35;0.43;;;;;;;23.15;45.49;100932.16;16111247;19;130098;-67
2023/08/26 17:42:03;;;;;;;1.25;0.52;;;;;;;23.14;45.54;100913.75;16107505;19;130409;-67
2023/08/26 17:47:25;;;;;;;4.78;0.93;;;;;;;23.12;45.67;100924.34;16111840;19;133317;-67
2023/08/26 17:52:47;;;;;;;1.17;0.30;;;;;;;23.10;45.91;100934.94;16110793;19;130352;-67
2023/08/26 17:58:09;;;;;;;0.65;0.30;;;;;;;23.08;45.98;100931.59;16105849;19;130475;-67
2023/08/26 18:03:31;;;;;;;1.88;0.68;;;;;;;23.06;45.89;100937.47;16109261;19;131806;-67
2023/08/26 18:08:53;;;;;;;2.40;0.60;;;;;;;23.04;45.96;100937.72;16107519;19;131792;-67
2023/08/26 18:14:15;;;;;;;2.40;0.50;;;;;;;23.03;45.81;100947.19;16108595;19;130845;-67
2023/08/26 18:19:37;;;;;;;1.27;0.57;;;;;;;23.02;45.88;100951.09;16106185;19;130573;-67
2023/08/26 18:25:00;;;;;;;1.67;0.55;;;;;;;23.01;46.03;100955.03;16107917;19;129232;-67
2023/08/26 18:30:23;;;;;;;1.55;0.35;;;;;;;23.00;46.20;100963.66;16103358;19;131678;-66
2023/08/26 18:35:45;;;;;;;2.00;0.50;;;;;;;22.99;46.21;100962.84;16112334;19;129976;-60
2023/08/26 18:41:06;;;;;;;4.78;0.50;;;;;;;23.01;45.99;100965.34;16121440;19;129624;-62
2023/08/26 18:46:28;;;;;;;2.75;0.50;;;;;;;23.03;46.57;100966.72;16123310;19;131518;-62
2023/08/26 18:51:50;;;;;;;5.80;0.93;;;;;;;23.04;46.89;100978.75;16121687;19;130649;-64
2023/08/26 18:57:13;;;;;;;1.13;0.50;;;;;;;23.04;46.80;100974.00;16122407;19;129783;-61
2023/08/26 19:02:35;;;;;;;1.50;0.50;;;;;;;23.04;46.85;100976.78;16118372;19;129888;-61
2023/08/26 19:07:57;;;;;;;1.63;0.50;;;;;;;23.03;46.76;100980.69;16120257;19;129608;-59
2023/08/26 19:13:19;;;;;;;1.65;0.40;;;;;;;23.03;46.70;101003.00;16115041;19;129617;-63
2023/08/26 19:18:41;;;;;;;1.42;0.43;;;;;;;23.05;47.45;101008.31;16113961;19;129892;-64
2023/08/26 19:24:03;;;;;;;1.27;0.50;;;;;;;23.07;47.26;101002.47;16114159;19;130999;-53
2023/08/26 19:29:26;;;;;;;10.75;0.90;;;;;;;23.09;47.21;101015.00;16116209;19;130796;-59
2023/08/26 19:34:48;;;;;;;10.93;0.90;;;;;;;23.11;47.58;101023.13;16116230;19;130685;-59
2023/08/26 19:40:10;;;;;;;8.45;0.80;;;;;;;23.11;47.64;101020.34;16119292;19;129389;-60
2023/08/26 19:45:32;;;;;;;8.05;1.52;;;;;;;23.10;47.75;101013.09;16118699;19;129464;-59
2023/08/26 19:50:54;;;;;;;10.88;1.20;;;;;;;23.10;47.51;101007.50;16114438;19;129403;-54
2023/08/26 19:56:16;;;;;;;10.48;0.90;;;;;;;23.12;47.41;101011.69;16115112;19;129665;-57
2023/08/26 20:01:38;;;;;;;6.78;0.82;;;;;;;23.17;47.75;101002.47;16114319;19;130378;-61
2023/08/26 20:07:00;;;;;;;14.75;1.45;;;;;;;23.21;47.63;100998.03;16107981;19;131104;-61
2023/08/26 20:12:22;;;;;;;7.18;1.20;;;;;;;23.25;47.96;100999.16;16114816;19;129835;-59
2023/08/26 20:17:44;;;;;;;7.13;0.70;;;;;;;23.27;48.05;100991.34;16113950;19;130161;-64
2023/08/26 20:23:06;;;;;;;15.68;1.20;;;;;;;23.28;47.87;100987.44;16111262;19;130946;-60
2023/08/26 20:28:28;;;;;;;6.38;0.85;;;;;;;23.29;48.00;100969.56;16109087;19;130315;-56
2023/08/26 20:33:50;;;;;;;15.20;1.65;;;;;;;23.31;48.17;100961.75;16117174;19;130399;-53
2023/08/26 20:39:12;;;;;;;8.77;0.95;;;;;;;23.33;48.09;100967.91;16110289;19;130773;-59
2023/08/26 20:44:35;;;;;;;8.75;0.85;;;;;;;23.34;47.96;100952.84;16112309;19;131675;-62
2023/08/26 20:50:00;;;;;;;2.53;0.85;;;;;;;23.38;48.01;100952.28;16112316;19;131174;-56
2023/08/26 20:55:22;;;;;;;12.93;0.90;;;;;;;23.38;47.66;100963.47;16107291;19;129671;-60
2023/08/26 21:00:44;;;;;;;10.70;1.00;;;;;;;23.35;48.01;100985.22;16092106;19;130246;-61
2023/08/26 21:06:07;;;;;;;17.33;1.10;;;;;;;23.31;47.83;100972.94;16098967;19;130311;-60
2023/08/26 21:11:29;;;;;;;9.70;0.95;;;;;;;23.27;48.00;100974.59;16104914;19;130605;-60
2023/08/26 21:16:51;;;;;;;4.97;0.70;;;;;;;23.25;48.08;100965.69;16104029;19;129968;-61
2023/08/26 21:22:13;;;;;;;6.55;1.10;;;;;;;23.23;48.01;100951.16;16108316;19;129375;-61
2023/08/26 21:27:36;;;;;;;10.63;1.17;;;;;;;23.22;48.02;100948.63;16105876;19;130617;-61
2023/08/26 21:32:58;;;;;;;10.18;1.40;;;;;;;23.18;47.97;100946.41;16109013;19;129381;-60
2023/08/26 21:38:20;;;;;;;4.50;0.90;;;;;;;23.17;48.07;100953.09;16106106;19;131078;-61
2023/08/26 21:43:42;;;;;;;8.02;0.90;;;;;;;23.16;47.94;100945.00;16104952;19;129107;-60
2023/08/26 21:49:04;;;;;;;17.27;1.23;;;;;;;23.14;47.93;100958.41;16103892;19;130511;-61
2023/08/26 21:54:26;;;;;;;16.30;1.20;;;;;;;23.13;48.09;100951.16;16104128;19;129735;-61
2023/08/26 21:59:48;;;;;;;7.10;0.82;;;;;;;23.11;47.98;100953.38;16103230;19;131092;-62
2023/08/26 22:05:10;;;;;;;5.65;1.20;;;;;;;23.09;47.72;100952.81;16104026;19;131377;-62
2023/08/26 22:10:34;;;;;;;6.85;0.80;;;;;;;23.07;48.02;100957.81;16102291;19;129947;-61
2023/08/26 22:15:56;;;;;;;7.63;1.13;;;;;;;23.04;47.99;100965.63;16112939;19;130921;-61
2023/08/26 22:21:18;;;;;;;8.27;0.90;;;;;;;23.02;47.94;100948.31;16117270;19;129606;-60
2023/08/26 22:26:40;;;;;;;17.63;1.92;;;;;;;23.01;47.47;100948.59;16107859;19;130787;-61
2023/08/26 22:32:02;;;;;;;12.63;1.50;;;;;;;22.99;47.85;100965.63;16116421;19;130428;-61
2023/08/26 22:37:25;;;;;;;8.90;0.93;;;;;;;22.96;47.97;100963.38;16123062;19;129695;-61
2023/08/26 22:42:47;;;;;;;4.28;0.80;;;;;;;22.94;48.03;100960.03;16112101;19;130008;-61
2023/08/26 22:48:09;;;;;;;10.20;1.13;;;;;;;22.93;47.78;100951.94;16126053;19;130334;-61
2023/08/26 22:53:31;;;;;;;6.97;0.85;;;;;;;22.91;47.87;100949.41;16112360;19;131375;-61
2023/08/26 22:58:53;;;;;;;5.88;0.88;;;;;;;22.88;48.07;100938.78;16116393;19;131038;-61
2023/08/26 23:04:15;;;;;;;4.93;1.00;;;;;;;22.87;47.69;100937.09;16117295;19;131912;-61
2023/08/26 23:09:37;;;;;;;8.07;1.42;;;;;;;22.86;47.80;100922.31;16116921;19;129247;-61
2023/08/26 23:14:59;;;;;;;4.95;1.30;;;;;;;22.84;47.90;100916.16;16112620;19;130028;-61
2023/08/26 23:20:24;;;;;;;5.63;1.02;;;;;;;22.84;47.73;100935.69;16116765;19;130619;-61
2023/08/26 23:25:46;;;;;;;4.28;0.93;;;;;;;22.83;47.74;100927.59;16107534;19;130156;-61
2023/08/26 23:31:08;;;;;;;6.18;0.80;;;;;;;22.81;47.63;100929.81;16111644;19;130199;-61
2023/08/26 23:36:30;;;;;;;5.75;0.93;;;;;;;22.80;47.64;100939.31;16111688;19;130107;-60
2023/08/26 23:41:52;;;;;;;3.17;1.13;;;;;;;22.78;47.92;100925.66;16111071;19;131372;-61
2023/08/26 23:47:13;;;;;;;6.57;0.80;;;;;;;22.77;47.78;100914.78;16107032;19;130532;-61
2023/08/26 23:52:36;;;;;;;5.05;0.80;;;;;;;22.77;47.80;100923.16;16108385;19;130178;-61
2023/08/26 23:57:58;;;;;;;4.63;0.98;;;;;;;22.74;47.70;100911.41;16108885;19;131580;-61
